KCXP

Carson Airport

Airport
ICAO code
KCXP
IATA Code
CSN
Summary
ICAO Region
NAM
ICAO Territory
Location

Carson City, Nevada

Serving
Carson City
Elevation
4697 ft
Coordinates
39° 11' 30" N , 119° 44' 9" W
KCC
Airport RE
Hot and High Operations
Metar
KCXP 300915Z AUTO 00000KT 10SM CLR 12/M06 A3019 RMK AO2

Description

Carson Airport, also known as Carson City Airport, is a public use airport located 3 nm northeast of the central business district of Carson City, in Ormsby County, Nevada, USA.

Airport map

Aerial View

SKYbrary Partners:

Safety knowledge contributed by: